Time;durP1;ratioP1;P1;durP2;ratioP2;P2;SDS_P1;SDS_P2;PMS_P1;PMS_P2;Temp;Humidity;BMP_temperature;BMP_pressure;BME280_temperature;BME280_humidity;BME280_pressure;Samples;Min_cycle;Max_cycle;Signal;HPM_P1;HPM_P2
2021/05/13 00:01:46;;;;;;;2.60;2.40;;;;;;;;;;5092434;28;20111;-64
2021/05/13 00:04:12;;;;;;;2.80;2.50;;;;;;;;;;5088389;28;20020;-64
2021/05/13 00:06:38;;;;;;;2.97;2.60;;;;;;;;;;5071376;28;20387;-64
2021/05/13 00:09:06;;;;;;;2.72;2.50;;;;;;;;;;5071934;28;20024;-64
2021/05/13 00:11:34;;;;;;;3.20;2.90;;;;;;;;;;5071823;28;20035;-64
2021/05/13 00:14:00;;;;;;;2.65;2.42;;;;;;;;;;5071330;28;20108;-65
2021/05/13 00:16:30;;;;;;;3.90;2.78;;;;;;;;;;5071166;28;20458;-64
2021/05/13 00:18:57;;;;;;;2.83;2.53;;;;;;;;;;5074151;28;20025;-64
2021/05/13 00:21:23;;;;;;;2.58;2.38;;;;;;;;;;5091295;28;20034;-64
2021/05/13 00:23:49;;;;;;;2.78;2.58;;;;;;;;;;5105609;28;20047;-64
2021/05/13 00:26:15;;;;;;;3.17;2.63;;;;;;;;;;5111980;28;20031;-64
2021/05/13 00:28:41;;;;;;;2.60;2.40;;;;;;;;;;5111527;28;20119;-64
2021/05/13 00:31:07;;;;;;;2.92;2.67;;;;;;;;;;5104562;28;20038;-64
2021/05/13 00:33:33;;;;;;;2.65;2.40;;;;;;;;;;5091382;28;20035;-64
2021/05/13 00:36:00;;;;;;;2.58;2.38;;;;;;;;;;5090955;28;20027;-64
2021/05/13 00:38:26;;;;;;;3.00;2.70;;;;;;;;;;5087056;28;20451;-64
2021/05/13 00:40:53;;;;;;;2.72;2.30;;;;;;;;;;5069764;28;20390;-64
2021/05/13 00:43:19;;;;;;;2.50;2.30;;;;;;;;;;5071108;28;20044;-64
2021/05/13 00:45:46;;;;;;;2.60;2.40;;;;;;;;;;5071174;28;20849;-64
2021/05/13 00:48:17;;;;;;;3.60;2.47;;;;;;;;;;5071375;28;20020;-64
2021/05/13 00:50:43;;;;;;;2.50;2.30;;;;;;;;;;5070244;28;20060;-64
2021/05/13 00:53:10;;;;;;;2.90;2.63;;;;;;;;;;5070304;28;20087;-64
2021/05/13 00:55:36;;;;;;;2.90;2.60;;;;;;;;;;5076255;28;20064;-64
2021/05/13 00:58:03;;;;;;;2.50;2.30;;;;;;;;;;5090869;28;20048;-64
2021/05/13 01:00:35;;;;;;;3.00;2.40;;;;;;;;;;5091161;28;20073;-64
2021/05/13 01:03:02;;;;;;;2.60;2.40;;;;;;;;;;5091348;28;20032;-65
2021/05/13 01:05:28;;;;;;;2.67;2.47;;;;;;;;;;5075126;28;20021;-64
2021/05/13 01:07:54;;;;;;;2.60;2.40;;;;;;;;;;5070936;28;20099;-64
2021/05/13 01:10:20;;;;;;;2.47;2.28;;;;;;;;;;5070525;28;20044;-64
2021/05/13 01:12:47;;;;;;;2.60;2.40;;;;;;;;;;5069899;28;20028;-64
2021/05/13 01:15:24;;;;;;;2.50;2.30;;;;;;;;;;5070703;28;20490;-64
2021/05/13 01:18:07;;;;;;;2.63;2.30;;;;;;;;;;5071270;28;20025;-64
2021/05/13 01:20:34;;;;;;;2.60;2.40;;;;;;;;;;5067169;28;20033;-64
2021/05/13 01:23:00;;;;;;;2.40;2.20;;;;;;;;;;5084209;28;20488;-64
2021/05/13 01:25:26;;;;;;;2.58;2.30;;;;;;;;;;5097138;28;20012;-64
2021/05/13 01:28:02;;;;;;;2.47;2.28;;;;;;;;;;5069918;28;20059;-65
2021/05/13 01:30:30;;;;;;;2.60;2.40;;;;;;;;;;5071171;28;20028;-64
2021/05/13 01:33:00;;;;;;;3.22;2.50;;;;;;;;;;5090557;28;20024;-64
2021/05/13 01:35:26;;;;;;;2.40;2.20;;;;;;;;;;5080409;28;20040;-64
2021/05/13 01:38:05;;;;;;;2.30;2.20;;;;;;;;;;5070624;28;20150;-64
2021/05/13 01:40:31;;;;;;;3.83;2.60;;;;;;;;;;5069744;28;20020;-64
2021/05/13 01:42:57;;;;;;;2.22;2.03;;;;;;;;;;5070466;28;20046;-64
2021/05/13 01:45:23;;;;;;;2.88;2.28;;;;;;;;;;5070628;28;20067;-64
2021/05/13 01:47:49;;;;;;;2.55;2.35;;;;;;;;;;5086152;28;20035;-64
2021/05/13 01:50:15;;;;;;;2.40;2.20;;;;;;;;;;5090268;28;20025;-64
2021/05/13 01:52:41;;;;;;;2.25;2.03;;;;;;;;;;5090595;28;20174;-64
2021/05/13 01:55:07;;;;;;;3.40;2.45;;;;;;;;;;5090305;28;20028;-64
2021/05/13 01:57:33;;;;;;;2.60;2.40;;;;;;;;;;5090458;28;20035;-64
2021/05/13 01:59:59;;;;;;;2.80;2.20;;;;;;;;;;5090675;28;20036;-64
2021/05/13 02:02:25;;;;;;;2.40;2.20;;;;;;;;;;5091114;28;20031;-64
2021/05/13 02:04:51;;;;;;;2.50;2.30;;;;;;;;;;5092880;28;20103;-64
2021/05/13 02:07:17;;;;;;;2.40;2.20;;;;;;;;;;5094260;28;20052;-64
2021/05/13 02:09:43;;;;;;;2.40;2.20;;;;;;;;;;5094286;28;20109;-64
2021/05/13 02:12:10;;;;;;;2.38;2.17;;;;;;;;;;5094061;28;20028;-64
2021/05/13 02:14:36;;;;;;;2.30;2.17;;;;;;;;;;5094348;28;20031;-64
2021/05/13 02:17:02;;;;;;;2.47;2.28;;;;;;;;;;5094238;28;20382;-65
2021/05/13 02:19:28;;;;;;;2.25;2.13;;;;;;;;;;5093145;28;20028;-64
2021/05/13 02:21:54;;;;;;;2.40;2.20;;;;;;;;;;5093941;28;20024;-65
2021/05/13 02:24:20;;;;;;;2.25;2.15;;;;;;;;;;5112401;28;20028;-64
2021/05/13 02:26:46;;;;;;;2.05;1.95;;;;;;;;;;5113988;28;20024;-64
2021/05/13 02:29:12;;;;;;;2.70;2.20;;;;;;;;;;5114540;28;20055;-64
2021/05/13 02:31:38;;;;;;;3.58;2.50;;;;;;;;;;5102869;28;20039;-65
2021/05/13 02:34:04;;;;;;;2.35;2.15;;;;;;;;;;5092934;28;20020;-64
2021/05/13 02:36:30;;;;;;;2.50;2.30;;;;;;;;;;5093507;28;20028;-64
2021/05/13 02:38:56;;;;;;;2.40;2.20;;;;;;;;;;5076425;28;20021;-64
2021/05/13 02:41:22;;;;;;;2.20;2.10;;;;;;;;;;5072811;28;20115;-64
2021/05/13 02:43:48;;;;;;;2.25;2.10;;;;;;;;;;5073950;28;20691;-64
2021/05/13 02:46:14;;;;;;;2.45;2.20;;;;;;;;;;5073666;28;20358;-64
2021/05/13 02:48:42;;;;;;;4.18;2.40;;;;;;;;;;5072517;28;20036;-64
2021/05/13 02:51:09;;;;;;;2.33;2.13;;;;;;;;;;5073394;28;20393;-64
2021/05/13 02:53:35;;;;;;;2.22;2.05;;;;;;;;;;5072992;28;20040;-64
2021/05/13 02:56:03;;;;;;;2.00;1.90;;;;;;;;;;5089424;28;20028;-64
2021/05/13 02:58:29;;;;;;;2.30;2.15;;;;;;;;;;5093325;28;20032;-64
2021/05/13 03:01:22;;;;;;;2.50;2.30;;;;;;;;;;5093604;28;20087;-64
2021/05/13 03:03:48;;;;;;;2.30;2.10;;;;;;;;;;5076649;28;20058;-64
2021/05/13 03:06:14;;;;;;;2.20;2.00;;;;;;;;;;5073278;28;20058;-64
2021/05/13 03:08:41;;;;;;;2.30;2.20;;;;;;;;;;5073079;28;20040;-64
2021/05/13 03:11:07;;;;;;;2.33;2.10;;;;;;;;;;5072402;28;20105;-64
2021/05/13 03:13:34;;;;;;;2.30;2.10;;;;;;;;;;5072710;28;20086;-64
2021/05/13 03:16:00;;;;;;;2.67;2.45;;;;;;;;;;5071859;28;20496;-64
2021/05/13 03:18:28;;;;;;;2.38;2.17;;;;;;;;;;5072325;28;20364;-64
2021/05/13 03:21:14;;;;;;;2.47;2.28;;;;;;;;;;5072596;28;20477;-64
2021/05/13 03:26:09;;;;;;;2.20;2.10;;;;;;;;;;5113115;28;20800;-64
2021/05/13 03:28:36;;;;;;;2.20;2.10;;;;;;;;;;5101828;28;20482;-64
2021/05/13 03:31:02;;;;;;;2.20;2.00;;;;;;;;;;5078803;28;20024;-64
2021/05/13 03:33:28;;;;;;;2.28;2.08;;;;;;;;;;5092623;28;20039;-64
2021/05/13 03:35:54;;;;;;;2.42;2.05;;;;;;;;;;5079669;28;20076;-64
2021/05/13 03:38:20;;;;;;;3.45;2.20;;;;;;;;;;5071606;28;20056;-64
2021/05/13 03:40:46;;;;;;;2.10;2.00;;;;;;;;;;5070883;28;20074;-64
2021/05/13 03:43:12;;;;;;;2.20;1.85;;;;;;;;;;5072442;28;20029;-64
2021/05/13 03:45:38;;;;;;;2.40;2.20;;;;;;;;;;5071727;28;20479;-64
2021/05/13 03:48:05;;;;;;;2.53;2.33;;;;;;;;;;5071118;28;20548;-64
2021/05/13 03:50:31;;;;;;;2.10;2.00;;;;;;;;;;5071580;28;20108;-64
2021/05/13 03:52:58;;;;;;;2.20;2.00;;;;;;;;;;5083099;28;20573;-64
2021/05/13 03:55:24;;;;;;;2.30;2.10;;;;;;;;;;5091360;28;20130;-66
2021/05/13 03:57:50;;;;;;;2.30;2.10;;;;;;;;;;5092135;28;20138;-65
2021/05/13 04:00:18;;;;;;;2.50;2.30;;;;;;;;;;5092256;28;20403;-66
2021/05/13 04:02:44;;;;;;;2.22;2.05;;;;;;;;;;5084685;28;20107;-65
2021/05/13 04:05:11;;;;;;;2.35;2.15;;;;;;;;;;5071754;28;20036;-65
2021/05/13 04:07:38;;;;;;;2.45;2.25;;;;;;;;;;5071654;28;20032;-65
2021/05/13 04:10:05;;;;;;;2.22;2.03;;;;;;;;;;5071491;28;20055;-66
2021/05/13 04:12:31;;;;;;;2.10;2.00;;;;;;;;;;5071788;28;20397;-65
2021/05/13 04:14:58;;;;;;;3.20;2.20;;;;;;;;;;5071711;28;20094;-65
2021/05/13 04:17:24;;;;;;;2.50;2.30;;;;;;;;;;5071693;28;20059;-65
2021/05/13 04:19:51;;;;;;;3.05;2.45;;;;;;;;;;5071002;28;20028;-65
2021/05/13 04:22:17;;;;;;;2.45;2.25;;;;;;;;;;5074856;28;20095;-65
2021/05/13 04:24:43;;;;;;;2.40;2.20;;;;;;;;;;5111648;28;20020;-65
2021/05/13 04:27:09;;;;;;;2.38;2.17;;;;;;;;;;5112137;28;20136;-65
2021/05/13 04:29:35;;;;;;;2.13;2.03;;;;;;;;;;5112118;28;20035;-65
2021/05/13 04:32:02;;;;;;;2.20;2.00;;;;;;;;;;5097158;28;20061;-65
2021/05/13 04:34:28;;;;;;;2.97;2.25;;;;;;;;;;5085298;28;20111;-66
2021/05/13 04:36:54;;;;;;;2.67;2.22;;;;;;;;;;5071482;28;20020;-65
2021/05/13 04:39:20;;;;;;;2.28;2.10;;;;;;;;;;5071425;28;20021;-66
2021/05/13 04:41:46;;;;;;;2.25;2.10;;;;;;;;;;5091438;28;20027;-65
2021/05/13 04:44:12;;;;;;;2.60;2.40;;;;;;;;;;5091390;28;20032;-66
2021/05/13 04:46:38;;;;;;;2.10;2.00;;;;;;;;;;5090580;28;20028;-66
2021/05/13 04:51:34;;;;;;;2.50;2.30;;;;;;;;;;5090266;28;20432;-65
2021/05/13 04:54:01;;;;;;;2.20;2.10;;;;;;;;;;5081377;28;20159;-66
2021/05/13 04:56:27;;;;;;;2.35;2.22;;;;;;;;;;5099443;28;20374;-65
2021/05/13 04:58:53;;;;;;;3.53;2.25;;;;;;;;;;5084595;28;20029;-66
2021/05/13 05:01:19;;;;;;;2.85;2.10;;;;;;;;;;5098232;28;20034;-65
2021/05/13 05:03:45;;;;;;;2.40;2.20;;;;;;;;;;5106147;28;20122;-67
2021/05/13 05:06:11;;;;;;;3.13;2.15;;;;;;;;;;5090020;28;20103;-66
2021/05/13 05:08:40;;;;;;;2.50;2.30;;;;;;;;;;5089744;28;20031;-66
2021/05/13 05:11:07;;;;;;;3.20;2.25;;;;;;;;;;5089119;28;20055;-65
2021/05/13 05:13:33;;;;;;;4.55;2.60;;;;;;;;;;5100593;28;20556;-64
2021/05/13 05:15:59;;;;;;;2.50;2.30;;;;;;;;;;5099664;28;20023;-64
2021/05/13 05:18:25;;;;;;;4.57;3.00;;;;;;;;;;5089897;28;20028;-65
2021/05/13 05:20:51;;;;;;;2.80;2.42;;;;;;;;;;5087958;28;20082;-65
2021/05/13 05:23:17;;;;;;;3.10;2.80;;;;;;;;;;5096919;28;20102;-65
2021/05/13 05:25:43;;;;;;;8.18;3.00;;;;;;;;;;5106838;28;20020;-65
2021/05/13 05:28:10;;;;;;;5.20;2.83;;;;;;;;;;5088384;28;20012;-65
2021/05/13 05:30:36;;;;;;;3.15;2.83;;;;;;;;;;5070137;28;20035;-65
2021/05/13 05:33:05;;;;;;;4.20;3.00;;;;;;;;;;5078782;28;20120;-63
2021/05/13 05:35:31;;;;;;;5.07;3.60;;;;;;;;;;5087608;28;20039;-66
2021/05/13 05:37:57;;;;;;;13.30;5.05;;;;;;;;;;5082800;28;20251;-62
2021/05/13 05:40:23;;;;;;;12.55;5.22;;;;;;;;;;5086602;28;20130;-62
2021/05/13 05:42:50;;;;;;;14.85;5.60;;;;;;;;;;5090292;28;20486;-61
2021/05/13 05:45:16;;;;;;;10.68;5.60;;;;;;;;;;5090163;28;20031;-64
2021/05/13 05:47:42;;;;;;;12.40;5.55;;;;;;;;;;5095454;28;20146;-63
2021/05/13 05:50:09;;;;;;;12.77;5.28;;;;;;;;;;5084482;28;20085;-63
2021/05/13 05:52:35;;;;;;;10.82;5.32;;;;;;;;;;5090027;28;20025;-61
2021/05/13 05:55:01;;;;;;;12.68;4.90;;;;;;;;;;5082158;28;20078;-63
2021/05/13 05:57:27;;;;;;;11.77;5.20;;;;;;;;;;5073071;28;20028;-64
2021/05/13 06:01:30;;;;;;;12.32;7.28;;;;;;;;;;5088532;27;20459;-73
2021/05/13 06:03:56;;;;;;;7.38;5.55;;;;;;;;;;5072586;28;20025;-74
2021/05/13 06:06:22;;;;;;;17.38;8.82;;;;;;;;;;5076409;28;20048;-74
2021/05/13 06:08:48;;;;;;;22.15;9.00;;;;;;;;;;5071860;28;20413;-74
2021/05/13 06:11:14;;;;;;;18.70;9.00;;;;;;;;;;5078460;28;20040;-72
2021/05/13 06:13:40;;;;;;;32.88;15.32;;;;;;;;;;5083603;28;20206;-73
2021/05/13 06:16:06;;;;;;;26.88;13.77;;;;;;;;;;5079752;28;20346;-75
2021/05/13 06:18:32;;;;;;;25.80;14.75;;;;;;;;;;5081660;28;20020;-71
2021/05/13 06:20:58;;;;;;;20.30;11.75;;;;;;;;;;5079066;28;20036;-66
2021/05/13 06:23:25;;;;;;;12.90;7.10;;;;;;;;;;5078350;28;20039;-76
2021/05/13 06:25:51;;;;;;;14.45;7.53;;;;;;;;;;5071041;28;20020;-76
2021/05/13 06:28:17;;;;;;;16.25;7.05;;;;;;;;;;5076616;28;20020;-69
2021/05/13 06:30:46;;;;;;;16.58;9.50;;;;;;;;;;5076698;28;20034;-72
2021/05/13 06:33:12;;;;;;;22.15;10.52;;;;;;;;;;5069455;28;20139;-75
2021/05/13 06:35:38;;;;;;;13.45;8.05;;;;;;;;;;5061493;28;20033;-67
2021/05/13 06:38:04;;;;;;;12.60;6.50;;;;;;;;;;5071686;28;20107;-69
2021/05/13 06:40:30;;;;;;;12.27;6.30;;;;;;;;;;5074454;28;20060;-74
2021/05/13 06:42:56;;;;;;;12.73;7.00;;;;;;;;;;5079093;28;20027;-69
2021/05/13 06:45:22;;;;;;;11.27;5.88;;;;;;;;;;5082084;28;20032;-71
2021/05/13 06:47:48;;;;;;;13.35;6.20;;;;;;;;;;5072702;28;20081;-70
2021/05/13 06:50:15;;;;;;;13.60;6.80;;;;;;;;;;5074937;28;20024;-69
2021/05/13 06:52:41;;;;;;;13.88;6.95;;;;;;;;;;5077000;28;20039;-69
2021/05/13 06:55:07;;;;;;;18.00;6.75;;;;;;;;;;5078358;28;20032;-68
2021/05/13 06:57:34;;;;;;;15.05;7.00;;;;;;;;;;5081455;28;20476;-68
2021/05/13 07:00:00;;;;;;;10.65;5.90;;;;;;;;;;5078461;28;20040;-69
2021/05/13 07:02:26;;;;;;;12.75;6.32;;;;;;;;;;5082992;28;20185;-69
2021/05/13 07:04:52;;;;;;;12.82;7.22;;;;;;;;;;5082370;28;20029;-69
2021/05/13 07:07:19;;;;;;;11.02;6.65;;;;;;;;;;5081910;28;20019;-70
2021/05/13 07:09:46;;;;;;;15.68;7.00;;;;;;;;;;5083288;28;20024;-70
2021/05/13 07:12:13;;;;;;;10.80;5.85;;;;;;;;;;5070826;28;20486;-68
2021/05/13 07:14:39;;;;;;;9.85;5.68;;;;;;;;;;5044588;28;20049;-68
2021/05/13 07:17:05;;;;;;;14.70;5.65;;;;;;;;;;5059565;28;20112;-68
2021/05/13 07:19:31;;;;;;;7.32;4.70;;;;;;;;;;5064616;28;20037;-74
2021/05/13 07:21:57;;;;;;;17.38;5.13;;;;;;;;;;5070860;28;20032;-73
2021/05/13 07:24:23;;;;;;;9.38;5.25;;;;;;;;;;5064754;28;20058;-73
2021/05/13 07:26:49;;;;;;;7.22;4.53;;;;;;;;;;5067664;28;20550;-65
2021/05/13 07:29:16;;;;;;;10.15;5.22;;;;;;;;;;5063439;28;20032;-65
2021/05/13 07:31:42;;;;;;;10.20;5.40;;;;;;;;;;5065233;28;20069;-72
2021/05/13 07:34:08;;;;;;;7.55;4.03;;;;;;;;;;5064532;28;20031;-73
2021/05/13 07:36:34;;;;;;;5.28;4.32;;;;;;;;;;5064656;28;20020;-74
2021/05/13 07:39:00;;;;;;;26.00;6.25;;;;;;;;;;5067890;28;20025;-74
2021/05/13 07:41:26;;;;;;;8.27;4.60;;;;;;;;;;5066163;28;20112;-74
2021/05/13 07:43:53;;;;;;;9.10;4.72;;;;;;;;;;5067057;28;20032;-73
2021/05/13 07:46:20;;;;;;;39.78;7.15;;;;;;;;;;5071082;28;20035;-73
2021/05/13 07:48:48;;;;;;;10.70;4.93;;;;;;;;;;5067042;28;20036;-73
2021/05/13 07:51:14;;;;;;;;;;;;;;;;;;5068634;28;20036;-72
2021/05/13 07:53:41;;;;;;;13.20;5.18;;;;;;;;;;5066628;28;19931;-74
2021/05/13 07:56:07;;;;;;;12.13;4.95;;;;;;;;;;5067929;28;20141;-73
2021/05/13 07:58:33;;;;;;;9.07;4.70;;;;;;;;;;5068183;28;20056;-73
2021/05/13 08:00:59;;;;;;;13.20;4.78;;;;;;;;;;5066330;28;20048;-74
2021/05/13 08:03:25;;;;;;;8.35;4.97;;;;;;;;;;5075380;28;20020;-73
2021/05/13 08:05:52;;;;;;;8.65;4.53;;;;;;;;;;5067934;28;20036;-73
2021/05/13 08:08:18;;;;;;;7.22;4.13;;;;;;;;;;5068148;28;20112;-74
2021/05/13 08:10:44;;;;;;;6.40;4.30;;;;;;;;;;5065688;28;20029;-72
2021/05/13 08:13:10;;;;;;;8.25;4.35;;;;;;;;;;5069380;28;20043;-73
2021/05/13 08:15:36;;;;;;;13.98;4.57;;;;;;;;;;5059282;28;20605;-73
2021/05/13 08:18:02;;;;;;;9.35;5.00;;;;;;;;;;5062453;28;20024;-72
2021/05/13 08:20:28;;;;;;;10.15;5.60;;;;;;;;;;5067239;28;20130;-74
2021/05/13 08:22:54;;;;;;;8.52;4.72;;;;;;;;;;5065960;28;20025;-73
2021/05/13 08:25:20;;;;;;;19.52;5.70;;;;;;;;;;5065223;28;20139;-73
2021/05/13 08:27:47;;;;;;;8.63;5.07;;;;;;;;;;5066289;28;20025;-71
2021/05/13 08:30:13;;;;;;;9.32;6.07;;;;;;;;;;5056523;28;20025;-73
2021/05/13 08:32:39;;;;;;;20.15;5.15;;;;;;;;;;5077501;28;20043;-73
2021/05/13 08:35:06;;;;;;;11.05;3.67;;;;;;;;;;5055762;28;20091;-72
2021/05/13 08:37:32;;;;;;;15.18;5.50;;;;;;;;;;5061753;28;20032;-72
2021/05/13 08:39:58;;;;;;;6.97;4.55;;;;;;;;;;5067127;28;20024;-73
2021/05/13 08:42:24;;;;;;;26.65;8.05;;;;;;;;;;5066413;28;20030;-73
2021/05/13 08:44:50;;;;;;;21.88;15.88;;;;;;;;;;5066659;28;20031;-73
2021/05/13 08:47:16;;;;;;;14.07;8.40;;;;;;;;;;5063392;28;20094;-72
2021/05/13 08:49:42;;;;;;;6.30;4.40;;;;;;;;;;5069881;28;20040;-73
2021/05/13 08:52:09;;;;;;;7.43;4.50;;;;;;;;;;5065527;28;20036;-72
2021/05/13 08:54:35;;;;;;;9.80;5.22;;;;;;;;;;5056775;28;20546;-73
2021/05/13 08:57:01;;;;;;;7.32;4.30;;;;;;;;;;5070928;28;20032;-72
2021/05/13 08:59:28;;;;;;;6.50;4.55;;;;;;;;;;5060158;28;20048;-73
2021/05/13 09:01:58;;;;;;;6.28;4.32;;;;;;;;;;5058446;28;20465;-71
2021/05/13 09:04:24;;;;;;;7.60;5.00;;;;;;;;;;5068442;28;20098;-72
2021/05/13 09:06:53;;;;;;;5.43;4.85;;;;;;;;;;5059947;28;20487;-65
2021/05/13 09:09:20;;;;;;;12.73;9.88;;;;;;;;;;5064967;28;20115;-65
2021/05/13 09:11:49;;;;;;;8.93;5.10;;;;;;;;;;5061484;28;20040;-73
2021/05/13 09:14:27;;;;;;;14.10;7.45;;;;;;;;;;5054821;28;20040;-72
2021/05/13 09:16:53;;;;;;;7.05;4.95;;;;;;;;;;5059412;28;21031;-73
2021/05/13 09:19:20;;;;;;;6.55;4.82;;;;;;;;;;5063709;28;20052;-73
2021/05/13 09:22:00;;;;;;;7.40;4.20;;;;;;;;;;5060354;28;20108;-73
2021/05/13 09:24:45;;;;;;;5.63;4.30;;;;;;;;;;5048529;28;20039;-66
2021/05/13 09:27:14;;;;;;;4.85;4.30;;;;;;;;;;5064891;28;20089;-66
2021/05/13 09:29:40;;;;;;;8.98;5.40;;;;;;;;;;5062008;28;20458;-66
2021/05/13 09:32:19;;;;;;;5.15;3.50;;;;;;;;;;5058990;28;20487;-65
2021/05/13 09:34:46;;;;;;;6.75;4.80;;;;;;;;;;5053495;28;20502;-66
2021/05/13 09:37:12;;;;;;;8.02;3.70;;;;;;;;;;5059632;28;20035;-66
2021/05/13 09:39:44;;;;;;;3.97;3.45;;;;;;;;;;5060634;28;20028;-66
2021/05/13 09:42:10;;;;;;;4.68;3.33;;;;;;;;;;5061735;28;20070;-66
2021/05/13 09:44:37;;;;;;;3.72;3.10;;;;;;;;;;5051117;28;20067;-66
2021/05/13 09:47:20;;;;;;;3.45;2.70;;;;;;;;;;5055708;28;20067;-66
2021/05/13 09:50:14;;;;;;;2.97;2.78;;;;;;;;;;5052232;28;20032;-66
2021/05/13 09:52:45;;;;;;;2.67;2.38;;;;;;;;;;5057734;28;20044;-66
2021/05/13 09:55:22;;;;;;;2.95;2.72;;;;;;;;;;5060536;28;20040;-65
2021/05/13 09:57:49;;;;;;;2.67;2.45;;;;;;;;;;5057159;28;20035;-66
2021/05/13 10:00:29;;;;;;;2.78;2.58;;;;;;;;;;5058945;28;20041;-65
2021/05/13 10:02:56;;;;;;;4.43;2.70;;;;;;;;;;5061655;28;20540;-65
2021/05/13 10:05:22;;;;;;;5.35;3.05;;;;;;;;;;5053948;28;20033;-65
2021/05/13 10:07:48;;;;;;;4.00;2.80;;;;;;;;;;5061194;28;20032;-66
2021/05/13 10:10:14;;;;;;;3.38;2.75;;;;;;;;;;5060487;28;20366;-65
2021/05/13 10:12:40;;;;;;;2.75;2.55;;;;;;;;;;5057774;28;20028;-65
2021/05/13 10:15:06;;;;;;;5.53;3.10;;;;;;;;;;5058762;28;20032;-66
2021/05/13 10:17:32;;;;;;;3.65;3.17;;;;;;;;;;5062662;28;20029;-67
2021/05/13 10:19:58;;;;;;;3.65;2.95;;;;;;;;;;5057298;28;20037;-67
2021/05/13 10:22:24;;;;;;;4.38;3.83;;;;;;;;;;5059050;28;20017;-67
2021/05/13 10:25:10;;;;;;;3.38;2.42;;;;;;;;;;5058966;28;20656;-67
2021/05/13 10:27:37;;;;;;;3.38;2.10;;;;;;;;;;5058062;28;20032;-67
2021/05/13 10:30:03;;;;;;;3.95;2.40;;;;;;;;;;5058729;28;20070;-74
2021/05/13 10:32:32;;;;;;;3.28;2.28;;;;;;;;;;5052550;28;20032;-74
2021/05/13 10:34:59;;;;;;;3.38;1.85;;;;;;;;;;5065740;28;20033;-75
2021/05/13 10:37:32;;;;;;;3.90;2.00;;;;;;;;;;5065074;28;20213;-74
2021/05/13 10:40:22;;;;;;;2.78;2.05;;;;;;;;;;5062164;28;20406;-74
2021/05/13 10:42:58;;;;;;;10.82;2.65;;;;;;;;;;5064901;28;20080;-74
2021/05/13 10:45:24;;;;;;;2.17;1.98;;;;;;;;;;5064170;28;20731;-74
2021/05/13 10:48:09;;;;;;;1.40;1.30;;;;;;;;;;5065371;28;20667;-74
2021/05/13 10:50:54;;;;;;;1.60;1.50;;;;;;;;;;5065083;28;20035;-74
2021/05/13 10:56:23;;;;;;;4.43;1.50;;;;;;;;;;5068813;28;20040;-75
2021/05/13 10:59:00;;;;;;;34.45;3.28;;;;;;;;;;5068847;28;20389;-75
2021/05/13 11:01:26;;;;;;;2.60;1.80;;;;;;;;;;5069075;28;20049;-75
2021/05/13 11:04:10;;;;;;;9.45;2.30;;;;;;;;;;5067634;28;20036;-75
2021/05/13 11:06:43;;;;;;;21.63;3.70;;;;;;;;;;5069010;28;20196;-74
2021/05/13 11:09:09;;;;;;;3.22;1.98;;;;;;;;;;5068215;28;20025;-75
2021/05/13 11:11:54;;;;;;;10.80;2.10;;;;;;;;;;5066157;28;20111;-75
2021/05/13 11:14:28;;;;;;;3.55;2.00;;;;;;;;;;5065188;28;20032;-75
2021/05/13 11:16:56;;;;;;;1.80;1.70;;;;;;;;;;5070209;28;20036;-74
2021/05/13 11:19:23;;;;;;;27.42;3.33;;;;;;;;;;5068608;28;20044;-75
2021/05/13 11:21:55;;;;;;;5.90;1.27;;;;;;;;;;5066605;28;20024;-75
2021/05/13 11:24:21;;;;;;;15.35;3.58;;;;;;;;;;5052839;28;20440;-67
2021/05/13 11:26:47;;;;;;;21.25;3.60;;;;;;;;;;5054409;28;20021;-67
2021/05/13 11:29:13;;;;;;;14.63;5.93;;;;;;;;;;5057290;28;20025;-67
2021/05/13 11:31:39;;;;;;;12.10;3.10;;;;;;;;;;5055034;28;20058;-68
2021/05/13 11:34:06;;;;;;;8.77;1.70;;;;;;;;;;5056033;28;20051;-67
2021/05/13 11:36:39;;;;;;;15.80;2.10;;;;;;;;;;5055336;28;20034;-67
2021/05/13 11:39:16;;;;;;;7.70;2.42;;;;;;;;;;5058533;28;20381;-67
2021/05/13 11:41:43;;;;;;;4.40;2.13;;;;;;;;;;5059436;28;20028;-66
2021/05/13 11:44:09;;;;;;;6.07;2.22;;;;;;;;;;5053948;28;20116;-65
2021/05/13 11:46:36;;;;;;;7.05;3.72;;;;;;;;;;5059327;28;20028;-70
2021/05/13 11:49:03;;;;;;;2.88;2.10;;;;;;;;;;5060097;28;20473;-65
2021/05/13 11:51:29;;;;;;;4.28;2.28;;;;;;;;;;5066241;28;20111;-65
2021/05/13 11:53:56;;;;;;;7.65;4.32;;;;;;;;;;5063937;28;20083;-65
2021/05/13 11:56:22;;;;;;;8.18;4.18;;;;;;;;;;5049138;28;20094;-71
2021/05/13 11:58:49;;;;;;;4.25;2.30;;;;;;;;;;5052250;28;20136;-73
2021/05/13 12:01:36;;;;;;;3.65;2.25;;;;;;;;;;5055035;28;20041;-73
2021/05/13 12:04:05;;;;;;;4.97;2.70;;;;;;;;;;5060889;28;20991;-71
2021/05/13 12:06:45;;;;;;;7.03;4.68;;;;;;;;;;5050537;28;20508;-72
2021/05/13 12:09:11;;;;;;;15.48;7.32;;;;;;;;;;5062464;28;20487;-71
2021/05/13 12:11:37;;;;;;;22.10;11.20;;;;;;;;;;5066797;28;20039;-73
2021/05/13 12:14:06;;;;;;;10.70;5.47;;;;;;;;;;5070025;28;20034;-72
2021/05/13 12:16:32;;;;;;;7.60;4.30;;;;;;;;;;5055347;28;20032;-71
2021/05/13 12:19:00;;;;;;;6.65;3.10;;;;;;;;;;5056439;28;20154;-71
2021/05/13 12:21:26;;;;;;;3.10;2.80;;;;;;;;;;5060595;28;20033;-72
2021/05/13 12:23:52;;;;;;;3.33;2.90;;;;;;;;;;5060338;28;24956;-72
2021/05/13 12:26:22;;;;;;;3.13;2.83;;;;;;;;;;5058246;28;20067;-66
2021/05/13 12:28:49;;;;;;;12.80;6.50;;;;;;;;;;5054087;28;20024;-67
2021/05/13 12:31:44;;;;;;;11.30;6.82;;;;;;;;;;5050800;28;20040;-66
2021/05/13 12:34:10;;;;;;;10.07;6.32;;;;;;;;;;5051540;28;20028;-65
2021/05/13 12:36:37;;;;;;;16.90;9.68;;;;;;;;;;5055090;28;20028;-66
2021/05/13 12:39:04;;;;;;;15.15;8.07;;;;;;;;;;5063415;28;20060;-65
2021/05/13 12:41:30;;;;;;;13.82;7.10;;;;;;;;;;5063578;28;20027;-66
2021/05/13 12:44:05;;;;;;;16.60;8.75;;;;;;;;;;5057526;28;20052;-66
2021/05/13 12:46:31;;;;;;;11.98;6.20;;;;;;;;;;5062953;28;20028;-65
2021/05/13 12:48:58;;;;;;;5.13;3.72;;;;;;;;;;5062436;28;20854;-65
2021/05/13 12:51:24;;;;;;;8.35;4.10;;;;;;;;;;5055614;28;21147;-61
2021/05/13 12:53:54;;;;;;;9.50;3.70;;;;;;;;;;5062200;28;20029;-61
2021/05/13 12:56:24;;;;;;;5.95;3.08;;;;;;;;;;5067385;28;20043;-61
2021/05/13 12:59:08;;;;;;;4.60;2.88;;;;;;;;;;5066116;28;20048;-61
2021/05/13 13:01:35;;;;;;;5.47;3.58;;;;;;;;;;5057399;28;20071;-62
2021/05/13 13:04:04;;;;;;;7.63;4.93;;;;;;;;;;5052081;28;20029;-61
2021/05/13 13:06:30;;;;;;;3.78;3.20;;;;;;;;;;5055723;28;20173;-62
2021/05/13 13:08:56;;;;;;;6.90;4.82;;;;;;;;;;5063625;28;20028;-62
2021/05/13 13:11:35;;;;;;;12.90;7.07;;;;;;;;;;5055177;28;20064;-68
2021/05/13 13:14:05;;;;;;;18.55;10.77;;;;;;;;;;5049172;28;20587;-69
2021/05/13 13:16:38;;;;;;;38.63;21.60;;;;;;;;;;5060740;28;20051;-69
2021/05/13 13:22:07;;;;;;;8.25;5.60;;;;;;;;;;5062549;28;20804;-69
2021/05/13 13:24:33;;;;;;;5.03;4.03;;;;;;;;;;5054006;28;20048;-68
2021/05/13 13:27:03;;;;;;;5.55;4.18;;;;;;;;;;5059285;28;20032;-68
2021/05/13 13:29:29;;;;;;;8.40;5.20;;;;;;;;;;5059288;28;20031;-69
2021/05/13 13:31:59;;;;;;;9.60;5.50;;;;;;;;;;5058969;28;20035;-68
2021/05/13 13:34:36;;;;;;;8.82;4.32;;;;;;;;;;5054794;28;20036;-68
2021/05/13 13:37:02;;;;;;;4.40;3.30;;;;;;;;;;5058561;28;20040;-68
2021/05/13 13:39:28;;;;;;;8.40;4.60;;;;;;;;;;5060404;28;20986;-69
2021/05/13 13:41:54;;;;;;;7.25;4.97;;;;;;;;;;5054924;28;20035;-62
2021/05/13 13:44:20;;;;;;;6.70;5.00;;;;;;;;;;5047578;28;20039;-61
2021/05/13 13:46:46;;;;;;;7.78;4.70;;;;;;;;;;5059326;28;20081;-61
2021/05/13 13:49:12;;;;;;;12.75;7.97;;;;;;;;;;5064407;28;20028;-60
2021/05/13 13:51:38;;;;;;;7.60;4.38;;;;;;;;;;5063649;28;20036;-61
2021/05/13 13:54:05;;;;;;;26.70;14.85;;;;;;;;;;5072492;28;20107;-61
2021/05/13 13:56:31;;;;;;;132.80;94.28;;;;;;;;;;5052742;28;20735;-61
2021/05/13 13:58:57;;;;;;;26.98;19.23;;;;;;;;;;5061669;28;20420;-63
2021/05/13 14:01:23;;;;;;;23.55;16.98;;;;;;;;;;5058476;28;20131;-62
2021/05/13 14:03:50;;;;;;;26.60;20.20;;;;;;;;;;5056213;28;20028;-63
2021/05/13 14:06:16;;;;;;;11.75;7.70;;;;;;;;;;5059656;28;20534;-62
2021/05/13 14:08:42;;;;;;;5.28;4.63;;;;;;;;;;5053976;28;20025;-63
2021/05/13 14:11:08;;;;;;;6.57;4.65;;;;;;;;;;5056790;28;20039;-63
2021/05/13 14:13:34;;;;;;;7.32;4.57;;;;;;;;;;5066660;28;20058;-63
2021/05/13 14:16:00;;;;;;;7.22;4.50;;;;;;;;;;5060300;28;20033;-63
2021/05/13 14:18:26;;;;;;;6.65;5.10;;;;;;;;;;5051188;28;20488;-63
2021/05/13 14:20:53;;;;;;;7.25;3.60;;;;;;;;;;5057507;28;20541;-62
2021/05/13 14:23:19;;;;;;;7.00;4.10;;;;;;;;;;5068443;28;20042;-62
2021/05/13 14:25:45;;;;;;;7.00;5.00;;;;;;;;;;5069428;28;21583;-62
2021/05/13 14:28:11;;;;;;;7.68;4.05;;;;;;;;;;5067363;28;20044;-62
2021/05/13 14:30:37;;;;;;;20.35;8.85;;;;;;;;;;5071242;28;20039;-62
2021/05/13 14:33:03;;;;;;;10.32;5.60;;;;;;;;;;5065641;28;20032;-62
2021/05/13 14:35:30;;;;;;;9.88;5.97;;;;;;;;;;5069203;28;20516;-63
2021/05/13 14:37:57;;;;;;;11.30;5.97;;;;;;;;;;5073151;28;20455;-63
2021/05/13 14:40:24;;;;;;;12.87;6.90;;;;;;;;;;5055883;28;20029;-63
2021/05/13 14:42:50;;;;;;;11.52;6.47;;;;;;;;;;5070309;28;20273;-63
2021/05/13 14:45:16;;;;;;;13.85;7.40;;;;;;;;;;5065544;28;20090;-63
2021/05/13 14:47:44;;;;;;;26.58;15.48;;;;;;;;;;5069795;28;20028;-63
2021/05/13 14:50:11;;;;;;;12.35;5.80;;;;;;;;;;5065964;28;20158;-63
2021/05/13 14:52:37;;;;;;;10.00;4.93;;;;;;;;;;5066031;28;20449;-63
2021/05/13 14:55:04;;;;;;;17.92;6.55;;;;;;;;;;5059571;28;20522;-63